sensor_id;sensor_type;location;lat;lon;timestamp;P1;durP1;ratioP1;P2;durP2;ratioP2
59824;SDS011;45703;50.898;6.054;2024-01-16T00:00:19;11.32;;;4.03;;
59824;SDS011;45703;50.898;6.054;2024-01-16T00:02:45;13.48;;;4.47;;
59824;SDS011;45703;50.898;6.054;2024-01-16T00:05:10;9.38;;;4.15;;
59824;SDS011;45703;50.898;6.054;2024-01-16T00:07:38;10.52;;;4.65;;
59824;SDS011;45703;50.898;6.054;2024-01-16T00:10:06;11.07;;;4.43;;
59824;SDS011;45703;50.898;6.054;2024-01-16T00:12:32;11.90;;;4.43;;
59824;SDS011;45703;50.898;6.054;2024-01-16T00:14:58;10.98;;;4.55;;
59824;SDS011;45703;50.898;6.054;2024-01-16T00:17:23;8.15;;;3.38;;
59824;SDS011;45703;50.898;6.054;2024-01-16T00:19:49;14.60;;;5.22;;
59824;SDS011;45703;50.898;6.054;2024-01-16T00:22:14;14.70;;;4.60;;
59824;SDS011;45703;50.898;6.054;2024-01-16T00:24:40;11.15;;;4.38;;
59824;SDS011;45703;50.898;6.054;2024-01-16T00:27:05;10.75;;;4.55;;
59824;SDS011;45703;50.898;6.054;2024-01-16T00:29:30;11.65;;;4.28;;
59824;SDS011;45703;50.898;6.054;2024-01-16T00:31:56;8.57;;;3.85;;
59824;SDS011;45703;50.898;6.054;2024-01-16T00:34:21;10.23;;;4.43;;
59824;SDS011;45703;50.898;6.054;2024-01-16T00:36:47;9.95;;;4.55;;
59824;SDS011;45703;50.898;6.054;2024-01-16T00:39:13;12.35;;;5.35;;
59824;SDS011;45703;50.898;6.054;2024-01-16T00:41:38;12.65;;;4.15;;
59824;SDS011;45703;50.898;6.054;2024-01-16T00:44:04;11.15;;;4.90;;
59824;SDS011;45703;50.898;6.054;2024-01-16T00:46:30;14.38;;;4.50;;
59824;SDS011;45703;50.898;6.054;2024-01-16T00:48:55;10.73;;;4.35;;
59824;SDS011;45703;50.898;6.054;2024-01-16T00:51:20;13.40;;;4.65;;
59824;SDS011;45703;50.898;6.054;2024-01-16T00:53:46;9.23;;;4.15;;
59824;SDS011;45703;50.898;6.054;2024-01-16T00:56:12;12.10;;;4.03;;
59824;SDS011;45703;50.898;6.054;2024-01-16T00:58:40;8.85;;;4.38;;
59824;SDS011;45703;50.898;6.054;2024-01-16T01:01:05;11.13;;;4.63;;
59824;SDS011;45703;50.898;6.054;2024-01-16T01:03:31;12.40;;;4.90;;
59824;SDS011;45703;50.898;6.054;2024-01-16T01:05:56;10.85;;;4.50;;
59824;SDS011;45703;50.898;6.054;2024-01-16T01:08:22;13.55;;;4.57;;
59824;SDS011;45703;50.898;6.054;2024-01-16T01:10:47;15.70;;;4.80;;
59824;SDS011;45703;50.898;6.054;2024-01-16T01:13:13;10.63;;;4.55;;
59824;SDS011;45703;50.898;6.054;2024-01-16T01:15:39;11.32;;;4.90;;
59824;SDS011;45703;50.898;6.054;2024-01-16T01:18:04;12.25;;;4.75;;
59824;SDS011;45703;50.898;6.054;2024-01-16T01:20:31;11.85;;;5.10;;
59824;SDS011;45703;50.898;6.054;2024-01-16T01:22:56;9.15;;;4.20;;
59824;SDS011;45703;50.898;6.054;2024-01-16T01:25:22;9.05;;;4.07;;
59824;SDS011;45703;50.898;6.054;2024-01-16T01:27:47;13.07;;;4.78;;
59824;SDS011;45703;50.898;6.054;2024-01-16T01:30:12;10.57;;;4.05;;
59824;SDS011;45703;50.898;6.054;2024-01-16T01:32:38;10.70;;;4.78;;
59824;SDS011;45703;50.898;6.054;2024-01-16T01:35:04;12.07;;;3.88;;
59824;SDS011;45703;50.898;6.054;2024-01-16T01:37:30;9.75;;;4.18;;
59824;SDS011;45703;50.898;6.054;2024-01-16T01:39:56;10.65;;;4.28;;
59824;SDS011;45703;50.898;6.054;2024-01-16T01:42:21;9.57;;;4.45;;
59824;SDS011;45703;50.898;6.054;2024-01-16T01:44:47;13.50;;;4.97;;
59824;SDS011;45703;50.898;6.054;2024-01-16T01:47:13;14.60;;;4.75;;
59824;SDS011;45703;50.898;6.054;2024-01-16T01:49:38;10.63;;;4.88;;
59824;SDS011;45703;50.898;6.054;2024-01-16T01:52:04;13.63;;;4.80;;
59824;SDS011;45703;50.898;6.054;2024-01-16T01:54:31;12.40;;;5.10;;
59824;SDS011;45703;50.898;6.054;2024-01-16T01:56:59;11.07;;;4.22;;
59824;SDS011;45703;50.898;6.054;2024-01-16T01:59:24;10.10;;;4.05;;
59824;SDS011;45703;50.898;6.054;2024-01-16T02:01:51;13.27;;;5.18;;
59824;SDS011;45703;50.898;6.054;2024-01-16T02:04:17;11.93;;;4.78;;
59824;SDS011;45703;50.898;6.054;2024-01-16T02:06:44;11.75;;;4.85;;
59824;SDS011;45703;50.898;6.054;2024-01-16T02:09:12;12.70;;;4.57;;
59824;SDS011;45703;50.898;6.054;2024-01-16T02:11:41;12.93;;;4.63;;
59824;SDS011;45703;50.898;6.054;2024-01-16T02:14:07;13.10;;;5.05;;
59824;SDS011;45703;50.898;6.054;2024-01-16T02:16:36;16.23;;;5.28;;
59824;SDS011;45703;50.898;6.054;2024-01-16T02:19:03;11.73;;;4.45;;
59824;SDS011;45703;50.898;6.054;2024-01-16T02:21:30;11.38;;;4.28;;
59824;SDS011;45703;50.898;6.054;2024-01-16T02:24:06;13.77;;;4.65;;
59824;SDS011;45703;50.898;6.054;2024-01-16T02:26:33;14.30;;;4.95;;
59824;SDS011;45703;50.898;6.054;2024-01-16T02:29:00;16.67;;;5.07;;
59824;SDS011;45703;50.898;6.054;2024-01-16T02:31:27;9.25;;;4.13;;
59824;SDS011;45703;50.898;6.054;2024-01-16T02:33:52;11.45;;;5.03;;
59824;SDS011;45703;50.898;6.054;2024-01-16T02:36:18;12.30;;;4.20;;
59824;SDS011;45703;50.898;6.054;2024-01-16T02:38:43;13.70;;;5.40;;
59824;SDS011;45703;50.898;6.054;2024-01-16T02:41:09;12.18;;;4.63;;
59824;SDS011;45703;50.898;6.054;2024-01-16T02:43:35;11.40;;;4.78;;
59824;SDS011;45703;50.898;6.054;2024-01-16T02:46:00;13.95;;;4.97;;
59824;SDS011;45703;50.898;6.054;2024-01-16T02:48:25;12.10;;;5.38;;
59824;SDS011;45703;50.898;6.054;2024-01-16T02:50:51;11.07;;;4.53;;
59824;SDS011;45703;50.898;6.054;2024-01-16T02:53:16;11.98;;;4.40;;
59824;SDS011;45703;50.898;6.054;2024-01-16T02:55:42;10.95;;;4.68;;
59824;SDS011;45703;50.898;6.054;2024-01-16T02:58:07;11.68;;;4.47;;
59824;SDS011;45703;50.898;6.054;2024-01-16T03:00:32;9.63;;;4.28;;
59824;SDS011;45703;50.898;6.054;2024-01-16T03:02:58;11.93;;;4.18;;
59824;SDS011;45703;50.898;6.054;2024-01-16T03:05:23;14.70;;;4.75;;
59824;SDS011;45703;50.898;6.054;2024-01-16T03:07:49;11.13;;;4.57;;
59824;SDS011;45703;50.898;6.054;2024-01-16T03:10:14;12.25;;;4.78;;
59824;SDS011;45703;50.898;6.054;2024-01-16T03:12:40;10.32;;;4.53;;
59824;SDS011;45703;50.898;6.054;2024-01-16T03:15:05;10.27;;;4.78;;
59824;SDS011;45703;50.898;6.054;2024-01-16T03:17:31;10.45;;;4.13;;
59824;SDS011;45703;50.898;6.054;2024-01-16T03:19:56;11.60;;;4.05;;
59824;SDS011;45703;50.898;6.054;2024-01-16T03:22:22;10.63;;;4.43;;
59824;SDS011;45703;50.898;6.054;2024-01-16T03:24:48;11.35;;;4.38;;
59824;SDS011;45703;50.898;6.054;2024-01-16T03:27:13;10.07;;;3.90;;
59824;SDS011;45703;50.898;6.054;2024-01-16T03:29:39;9.98;;;3.75;;
59824;SDS011;45703;50.898;6.054;2024-01-16T03:32:04;11.90;;;4.20;;
59824;SDS011;45703;50.898;6.054;2024-01-16T03:34:30;9.35;;;3.38;;
59824;SDS011;45703;50.898;6.054;2024-01-16T03:36:56;8.13;;;3.40;;
59824;SDS011;45703;50.898;6.054;2024-01-16T03:39:22;10.95;;;3.80;;
59824;SDS011;45703;50.898;6.054;2024-01-16T03:41:47;11.05;;;3.80;;
59824;SDS011;45703;50.898;6.054;2024-01-16T03:44:13;12.43;;;4.15;;
59824;SDS011;45703;50.898;6.054;2024-01-16T03:46:38;13.50;;;4.05;;
59824;SDS011;45703;50.898;6.054;2024-01-16T03:49:03;11.32;;;3.08;;
59824;SDS011;45703;50.898;6.054;2024-01-16T03:51:29;8.35;;;3.40;;
59824;SDS011;45703;50.898;6.054;2024-01-16T03:53:54;12.18;;;3.60;;
59824;SDS011;45703;50.898;6.054;2024-01-16T03:56:20;10.25;;;3.30;;
59824;SDS011;45703;50.898;6.054;2024-01-16T03:58:45;9.40;;;3.00;;
59824;SDS011;45703;50.898;6.054;2024-01-16T04:01:10;12.05;;;3.75;;
59824;SDS011;45703;50.898;6.054;2024-01-16T04:03:38;10.52;;;3.53;;
59824;SDS011;45703;50.898;6.054;2024-01-16T04:06:13;9.30;;;3.25;;
59824;SDS011;45703;50.898;6.054;2024-01-16T04:08:42;11.40;;;3.42;;
59824;SDS011;45703;50.898;6.054;2024-01-16T04:11:11;10.55;;;3.25;;
59824;SDS011;45703;50.898;6.054;2024-01-16T04:13:37;8.27;;;3.03;;
59824;SDS011;45703;50.898;6.054;2024-01-16T04:16:02;10.18;;;3.13;;
59824;SDS011;45703;50.898;6.054;2024-01-16T04:18:28;11.20;;;3.10;;
59824;SDS011;45703;50.898;6.054;2024-01-16T04:20:53;10.48;;;3.30;;
59824;SDS011;45703;50.898;6.054;2024-01-16T04:23:19;8.02;;;3.10;;
59824;SDS011;45703;50.898;6.054;2024-01-16T04:25:44;9.40;;;3.60;;
59824;SDS011;45703;50.898;6.054;2024-01-16T04:28:09;16.48;;;4.00;;
59824;SDS011;45703;50.898;6.054;2024-01-16T04:30:35;10.52;;;3.08;;
59824;SDS011;45703;50.898;6.054;2024-01-16T04:33:00;10.52;;;3.42;;
59824;SDS011;45703;50.898;6.054;2024-01-16T04:35:26;12.05;;;4.20;;
59824;SDS011;45703;50.898;6.054;2024-01-16T04:37:51;9.18;;;3.08;;
59824;SDS011;45703;50.898;6.054;2024-01-16T04:40:17;10.38;;;3.35;;
59824;SDS011;45703;50.898;6.054;2024-01-16T04:42:42;12.35;;;3.63;;
59824;SDS011;45703;50.898;6.054;2024-01-16T04:45:08;10.77;;;3.30;;
59824;SDS011;45703;50.898;6.054;2024-01-16T04:47:34;9.20;;;2.83;;
59824;SDS011;45703;50.898;6.054;2024-01-16T04:49:59;10.57;;;3.55;;
59824;SDS011;45703;50.898;6.054;2024-01-16T04:52:24;8.10;;;3.00;;
59824;SDS011;45703;50.898;6.054;2024-01-16T04:54:50;10.68;;;3.10;;
59824;SDS011;45703;50.898;6.054;2024-01-16T04:57:15;9.10;;;3.17;;
59824;SDS011;45703;50.898;6.054;2024-01-16T04:59:40;9.52;;;3.35;;
59824;SDS011;45703;50.898;6.054;2024-01-16T05:02:06;8.10;;;3.08;;
59824;SDS011;45703;50.898;6.054;2024-01-16T05:04:32;9.25;;;3.10;;
59824;SDS011;45703;50.898;6.054;2024-01-16T05:06:57;9.52;;;3.60;;
59824;SDS011;45703;50.898;6.054;2024-01-16T05:09:22;9.85;;;3.20;;
59824;SDS011;45703;50.898;6.054;2024-01-16T05:11:48;8.40;;;3.00;;
59824;SDS011;45703;50.898;6.054;2024-01-16T05:14:14;12.55;;;3.38;;
59824;SDS011;45703;50.898;6.054;2024-01-16T05:16:39;10.02;;;3.03;;
59824;SDS011;45703;50.898;6.054;2024-01-16T05:19:05;8.90;;;3.00;;
59824;SDS011;45703;50.898;6.054;2024-01-16T05:21:30;12.30;;;3.08;;
59824;SDS011;45703;50.898;6.054;2024-01-16T05:23:55;7.80;;;3.15;;
59824;SDS011;45703;50.898;6.054;2024-01-16T05:26:21;8.07;;;2.97;;
59824;SDS011;45703;50.898;6.054;2024-01-16T05:28:47;10.07;;;2.85;;
59824;SDS011;45703;50.898;6.054;2024-01-16T05:31:12;11.52;;;3.15;;
59824;SDS011;45703;50.898;6.054;2024-01-16T05:33:38;9.85;;;3.30;;
59824;SDS011;45703;50.898;6.054;2024-01-16T05:36:03;12.82;;;3.50;;
59824;SDS011;45703;50.898;6.054;2024-01-16T05:38:29;8.43;;;2.63;;
59824;SDS011;45703;50.898;6.054;2024-01-16T05:40:54;10.23;;;3.13;;
59824;SDS011;45703;50.898;6.054;2024-01-16T05:43:19;7.90;;;2.78;;
59824;SDS011;45703;50.898;6.054;2024-01-16T05:45:45;6.60;;;2.50;;
59824;SDS011;45703;50.898;6.054;2024-01-16T05:48:10;10.80;;;3.22;;
59824;SDS011;45703;50.898;6.054;2024-01-16T05:50:36;9.80;;;3.42;;
59824;SDS011;45703;50.898;6.054;2024-01-16T05:53:01;10.32;;;3.33;;
59824;SDS011;45703;50.898;6.054;2024-01-16T05:55:29;8.85;;;2.80;;
59824;SDS011;45703;50.898;6.054;2024-01-16T05:57:57;10.35;;;3.20;;
59824;SDS011;45703;50.898;6.054;2024-01-16T06:00:24;11.43;;;3.13;;
59824;SDS011;45703;50.898;6.054;2024-01-16T06:02:50;8.93;;;2.90;;
59824;SDS011;45703;50.898;6.054;2024-01-16T06:05:15;9.10;;;3.70;;
59824;SDS011;45703;50.898;6.054;2024-01-16T06:07:41;10.27;;;3.50;;
59824;SDS011;45703;50.898;6.054;2024-01-16T06:10:06;12.50;;;3.40;;
59824;SDS011;45703;50.898;6.054;2024-01-16T06:12:32;10.18;;;3.53;;
59824;SDS011;45703;50.898;6.054;2024-01-16T06:14:57;12.02;;;3.85;;
59824;SDS011;45703;50.898;6.054;2024-01-16T06:17:23;12.30;;;3.60;;
59824;SDS011;45703;50.898;6.054;2024-01-16T06:19:48;9.15;;;3.85;;
59824;SDS011;45703;50.898;6.054;2024-01-16T06:22:14;11.05;;;3.40;;
59824;SDS011;45703;50.898;6.054;2024-01-16T06:24:39;10.38;;;3.35;;
59824;SDS011;45703;50.898;6.054;2024-01-16T06:27:05;10.88;;;3.72;;
59824;SDS011;45703;50.898;6.054;2024-01-16T06:29:31;10.65;;;3.60;;
59824;SDS011;45703;50.898;6.054;2024-01-16T06:31:57;9.88;;;3.40;;
59824;SDS011;45703;50.898;6.054;2024-01-16T06:34:22;13.55;;;3.72;;
59824;SDS011;45703;50.898;6.054;2024-01-16T06:36:48;10.02;;;3.47;;
59824;SDS011;45703;50.898;6.054;2024-01-16T06:39:13;12.23;;;4.07;;
59824;SDS011;45703;50.898;6.054;2024-01-16T06:41:40;10.25;;;3.15;;
59824;SDS011;45703;50.898;6.054;2024-01-16T06:44:06;11.68;;;3.83;;
59824;SDS011;45703;50.898;6.054;2024-01-16T06:46:31;12.65;;;3.65;;
59824;SDS011;45703;50.898;6.054;2024-01-16T06:48:57;9.70;;;3.70;;
59824;SDS011;45703;50.898;6.054;2024-01-16T06:51:22;11.05;;;3.83;;
59824;SDS011;45703;50.898;6.054;2024-01-16T06:53:48;11.55;;;3.63;;
59824;SDS011;45703;50.898;6.054;2024-01-16T06:56:13;9.77;;;3.38;;
59824;SDS011;45703;50.898;6.054;2024-01-16T06:58:38;7.95;;;3.17;;
59824;SDS011;45703;50.898;6.054;2024-01-16T07:01:04;10.60;;;3.83;;
59824;SDS011;45703;50.898;6.054;2024-01-16T07:03:29;10.02;;;4.63;;
59824;SDS011;45703;50.898;6.054;2024-01-16T07:05:55;10.43;;;3.67;;
59824;SDS011;45703;50.898;6.054;2024-01-16T07:08:20;9.05;;;3.67;;
59824;SDS011;45703;50.898;6.054;2024-01-16T07:10:46;8.95;;;3.28;;
59824;SDS011;45703;50.898;6.054;2024-01-16T07:13:11;9.82;;;2.97;;
59824;SDS011;45703;50.898;6.054;2024-01-16T07:15:37;8.65;;;3.63;;
59824;SDS011;45703;50.898;6.054;2024-01-16T07:18:02;11.43;;;4.30;;
59824;SDS011;45703;50.898;6.054;2024-01-16T07:20:28;9.50;;;3.35;;
59824;SDS011;45703;50.898;6.054;2024-01-16T07:22:53;7.55;;;3.20;;
59824;SDS011;45703;50.898;6.054;2024-01-16T07:25:19;10.30;;;4.00;;
59824;SDS011;45703;50.898;6.054;2024-01-16T07:27:45;8.48;;;3.55;;
59824;SDS011;45703;50.898;6.054;2024-01-16T07:30:13;12.73;;;3.70;;
59824;SDS011;45703;50.898;6.054;2024-01-16T07:32:39;11.05;;;3.88;;
59824;SDS011;45703;50.898;6.054;2024-01-16T07:35:04;9.02;;;3.83;;
59824;SDS011;45703;50.898;6.054;2024-01-16T07:37:30;10.32;;;3.55;;
59824;SDS011;45703;50.898;6.054;2024-01-16T07:39:55;10.25;;;3.70;;
59824;SDS011;45703;50.898;6.054;2024-01-16T07:42:21;10.65;;;3.97;;
59824;SDS011;45703;50.898;6.054;2024-01-16T07:44:46;10.88;;;3.50;;
59824;SDS011;45703;50.898;6.054;2024-01-16T07:47:11;9.13;;;3.80;;
59824;SDS011;45703;50.898;6.054;2024-01-16T07:49:37;12.77;;;4.13;;
59824;SDS011;45703;50.898;6.054;2024-01-16T07:52:02;10.52;;;3.97;;
59824;SDS011;45703;50.898;6.054;2024-01-16T07:54:28;9.20;;;3.63;;
59824;SDS011;45703;50.898;6.054;2024-01-16T07:56:53;9.35;;;3.20;;
59824;SDS011;45703;50.898;6.054;2024-01-16T07:59:19;10.10;;;3.95;;
59824;SDS011;45703;50.898;6.054;2024-01-16T08:01:44;8.77;;;4.00;;
59824;SDS011;45703;50.898;6.054;2024-01-16T08:04:10;7.43;;;3.38;;
59824;SDS011;45703;50.898;6.054;2024-01-16T08:06:36;9.82;;;4.05;;
59824;SDS011;45703;50.898;6.054;2024-01-16T08:09:01;8.80;;;3.80;;
59824;SDS011;45703;50.898;6.054;2024-01-16T08:11:27;11.85;;;3.72;;
59824;SDS011;45703;50.898;6.054;2024-01-16T08:13:52;10.15;;;4.35;;
59824;SDS011;45703;50.898;6.054;2024-01-16T08:16:18;12.48;;;3.75;;
59824;SDS011;45703;50.898;6.054;2024-01-16T08:18:43;9.77;;;3.80;;
59824;SDS011;45703;50.898;6.054;2024-01-16T08:21:08;10.07;;;3.72;;
59824;SDS011;45703;50.898;6.054;2024-01-16T08:23:34;12.73;;;3.88;;
59824;SDS011;45703;50.898;6.054;2024-01-16T08:26:00;10.20;;;3.95;;
59824;SDS011;45703;50.898;6.054;2024-01-16T08:28:26;8.55;;;3.47;;
59824;SDS011;45703;50.898;6.054;2024-01-16T08:30:51;8.95;;;3.55;;
59824;SDS011;45703;50.898;6.054;2024-01-16T08:33:17;9.13;;;4.15;;
59824;SDS011;45703;50.898;6.054;2024-01-16T08:35:42;10.40;;;4.25;;
59824;SDS011;45703;50.898;6.054;2024-01-16T08:38:08;12.10;;;4.20;;
59824;SDS011;45703;50.898;6.054;2024-01-16T08:40:34;9.35;;;3.60;;
59824;SDS011;45703;50.898;6.054;2024-01-16T08:42:59;14.43;;;5.18;;
59824;SDS011;45703;50.898;6.054;2024-01-16T08:45:24;10.02;;;3.80;;
59824;SDS011;45703;50.898;6.054;2024-01-16T08:47:51;9.15;;;3.90;;
59824;SDS011;45703;50.898;6.054;2024-01-16T08:50:17;9.88;;;3.92;;
59824;SDS011;45703;50.898;6.054;2024-01-16T08:52:42;11.40;;;4.03;;
59824;SDS011;45703;50.898;6.054;2024-01-16T08:55:08;10.07;;;3.60;;
59824;SDS011;45703;50.898;6.054;2024-01-16T08:57:36;12.10;;;4.72;;
59824;SDS011;45703;50.898;6.054;2024-01-16T09:00:03;10.98;;;4.25;;
59824;SDS011;45703;50.898;6.054;2024-01-16T09:02:30;9.57;;;4.00;;
59824;SDS011;45703;50.898;6.054;2024-01-16T09:04:56;9.57;;;3.80;;
59824;SDS011;45703;50.898;6.054;2024-01-16T09:07:21;10.35;;;4.25;;
59824;SDS011;45703;50.898;6.054;2024-01-16T09:09:47;10.18;;;4.30;;
59824;SDS011;45703;50.898;6.054;2024-01-16T09:12:13;10.70;;;4.85;;
59824;SDS011;45703;50.898;6.054;2024-01-16T09:14:38;9.27;;;3.92;;
59824;SDS011;45703;50.898;6.054;2024-01-16T09:17:03;11.25;;;4.32;;
59824;SDS011;45703;50.898;6.054;2024-01-16T09:19:29;13.32;;;4.63;;
59824;SDS011;45703;50.898;6.054;2024-01-16T09:21:55;11.57;;;4.47;;
59824;SDS011;45703;50.898;6.054;2024-01-16T09:24:21;11.10;;;4.50;;
59824;SDS011;45703;50.898;6.054;2024-01-16T09:26:46;10.48;;;4.45;;
59824;SDS011;45703;50.898;6.054;2024-01-16T09:29:11;9.15;;;4.32;;
59824;SDS011;45703;50.898;6.054;2024-01-16T09:31:37;10.20;;;4.50;;
59824;SDS011;45703;50.898;6.054;2024-01-16T09:34:03;12.90;;;4.72;;
59824;SDS011;45703;50.898;6.054;2024-01-16T09:36:29;9.43;;;4.35;;
59824;SDS011;45703;50.898;6.054;2024-01-16T09:38:54;10.73;;;4.75;;
59824;SDS011;45703;50.898;6.054;2024-01-16T09:41:20;10.65;;;4.82;;
59824;SDS011;45703;50.898;6.054;2024-01-16T09:43:46;8.82;;;3.85;;
59824;SDS011;45703;50.898;6.054;2024-01-16T09:46:12;11.77;;;4.05;;
59824;SDS011;45703;50.898;6.054;2024-01-16T09:48:40;11.32;;;4.60;;
59824;SDS011;45703;50.898;6.054;2024-01-16T09:51:09;11.55;;;4.03;;
59824;SDS011;45703;50.898;6.054;2024-01-16T09:53:34;9.10;;;3.97;;
59824;SDS011;45703;50.898;6.054;2024-01-16T09:56:01;10.38;;;4.32;;
59824;SDS011;45703;50.898;6.054;2024-01-16T09:58:29;10.27;;;4.13;;
59824;SDS011;45703;50.898;6.054;2024-01-16T10:00:59;10.68;;;3.92;;
59824;SDS011;45703;50.898;6.054;2024-01-16T10:03:24;9.50;;;3.90;;
59824;SDS011;45703;50.898;6.054;2024-01-16T10:05:51;11.15;;;4.25;;
59824;SDS011;45703;50.898;6.054;2024-01-16T10:08:16;12.18;;;4.25;;
59824;SDS011;45703;50.898;6.054;2024-01-16T10:10:46;10.48;;;4.28;;
59824;SDS011;45703;50.898;6.054;2024-01-16T10:13:12;9.00;;;3.97;;
59824;SDS011;45703;50.898;6.054;2024-01-16T10:15:39;12.70;;;4.65;;
59824;SDS011;45703;50.898;6.054;2024-01-16T10:18:04;10.23;;;3.90;;
59824;SDS011;45703;50.898;6.054;2024-01-16T10:20:34;12.05;;;4.20;;
59824;SDS011;45703;50.898;6.054;2024-01-16T10:23:00;10.00;;;3.90;;
59824;SDS011;45703;50.898;6.054;2024-01-16T10:25:25;11.68;;;4.25;;
59824;SDS011;45703;50.898;6.054;2024-01-16T10:28:04;8.40;;;4.00;;
59824;SDS011;45703;50.898;6.054;2024-01-16T10:30:32;11.68;;;4.25;;
59824;SDS011;45703;50.898;6.054;2024-01-16T10:33:11;10.60;;;4.28;;
59824;SDS011;45703;50.898;6.054;2024-01-16T10:35:39;10.45;;;4.13;;
59824;SDS011;45703;50.898;6.054;2024-01-16T10:38:04;9.48;;;4.15;;
59824;SDS011;45703;50.898;6.054;2024-01-16T10:40:30;9.77;;;4.03;;
59824;SDS011;45703;50.898;6.054;2024-01-16T10:43:00;9.02;;;4.45;;
59824;SDS011;45703;50.898;6.054;2024-01-16T10:45:28;9.88;;;4.30;;
59824;SDS011;45703;50.898;6.054;2024-01-16T10:48:11;10.25;;;3.95;;
59824;SDS011;45703;50.898;6.054;2024-01-16T10:50:37;10.40;;;4.55;;
59824;SDS011;45703;50.898;6.054;2024-01-16T10:53:04;15.95;;;4.97;;
59824;SDS011;45703;50.898;6.054;2024-01-16T10:58:22;10.80;;;4.95;;
59824;SDS011;45703;50.898;6.054;2024-01-16T11:00:50;10.85;;;4.47;;
59824;SDS011;45703;50.898;6.054;2024-01-16T11:03:24;11.10;;;4.63;;
59824;SDS011;45703;50.898;6.054;2024-01-16T11:05:54;8.77;;;3.92;;
59824;SDS011;45703;50.898;6.054;2024-01-16T11:08:22;9.07;;;4.13;;
59824;SDS011;45703;50.898;6.054;2024-01-16T11:10:56;10.30;;;4.30;;
59824;SDS011;45703;50.898;6.054;2024-01-16T11:13:23;11.57;;;4.65;;
59824;SDS011;45703;50.898;6.054;2024-01-16T11:15:48;12.60;;;5.88;;
59824;SDS011;45703;50.898;6.054;2024-01-16T11:18:15;11.75;;;5.28;;
59824;SDS011;45703;50.898;6.054;2024-01-16T11:20:42;12.18;;;5.93;;
59824;SDS011;45703;50.898;6.054;2024-01-16T11:23:10;16.80;;;8.43;;
59824;SDS011;45703;50.898;6.054;2024-01-16T11:25:37;21.88;;;12.27;;
59824;SDS011;45703;50.898;6.054;2024-01-16T11:28:11;20.48;;;11.77;;
59824;SDS011;45703;50.898;6.054;2024-01-16T11:30:38;14.77;;;6.63;;
59824;SDS011;45703;50.898;6.054;2024-01-16T11:33:04;11.90;;;6.95;;
59824;SDS011;45703;50.898;6.054;2024-01-16T11:38:10;13.43;;;5.63;;
59824;SDS011;45703;50.898;6.054;2024-01-16T11:40:46;11.48;;;4.63;;
59824;SDS011;45703;50.898;6.054;2024-01-16T11:45:56;10.90;;;4.47;;
59824;SDS011;45703;50.898;6.054;2024-01-16T11:48:23;11.43;;;4.35;;
59824;SDS011;45703;50.898;6.054;2024-01-16T11:50:49;11.20;;;4.72;;
59824;SDS011;45703;50.898;6.054;2024-01-16T12:01:26;9.77;;;3.75;;
59824;SDS011;45703;50.898;6.054;2024-01-16T12:04:04;9.88;;;3.70;;
59824;SDS011;45703;50.898;6.054;2024-01-16T12:06:30;8.23;;;3.47;;
59824;SDS011;45703;50.898;6.054;2024-01-16T12:09:15;9.80;;;3.55;;
59824;SDS011;45703;50.898;6.054;2024-01-16T12:11:46;10.57;;;3.95;;
59824;SDS011;45703;50.898;6.054;2024-01-16T12:14:22;10.02;;;3.50;;
59824;SDS011;45703;50.898;6.054;2024-01-16T12:16:47;9.82;;;3.80;;
59824;SDS011;45703;50.898;6.054;2024-01-16T12:19:13;12.35;;;3.97;;
59824;SDS011;45703;50.898;6.054;2024-01-16T12:21:39;10.75;;;4.13;;
59824;SDS011;45703;50.898;6.054;2024-01-16T12:24:05;8.23;;;3.30;;
59824;SDS011;45703;50.898;6.054;2024-01-16T12:26:31;9.55;;;3.40;;
59824;SDS011;45703;50.898;6.054;2024-01-16T12:28:57;10.25;;;4.00;;
59824;SDS011;45703;50.898;6.054;2024-01-16T12:31:22;8.35;;;3.22;;
59824;SDS011;45703;50.898;6.054;2024-01-16T12:33:49;8.95;;;3.25;;
59824;SDS011;45703;50.898;6.054;2024-01-16T12:36:18;9.30;;;2.88;;
59824;SDS011;45703;50.898;6.054;2024-01-16T12:38:43;8.57;;;3.08;;
59824;SDS011;45703;50.898;6.054;2024-01-16T12:41:09;9.02;;;3.47;;
59824;SDS011;45703;50.898;6.054;2024-01-16T12:43:36;9.57;;;3.55;;
59824;SDS011;45703;50.898;6.054;2024-01-16T12:46:04;10.18;;;3.67;;
59824;SDS011;45703;50.898;6.054;2024-01-16T12:48:31;11.80;;;3.50;;
59824;SDS011;45703;50.898;6.054;2024-01-16T12:51:03;7.82;;;2.80;;
59824;SDS011;45703;50.898;6.054;2024-01-16T12:53:29;8.50;;;3.00;;
59824;SDS011;45703;50.898;6.054;2024-01-16T12:55:57;7.38;;;2.92;;
59824;SDS011;45703;50.898;6.054;2024-01-16T12:58:34;10.30;;;3.47;;
59824;SDS011;45703;50.898;6.054;2024-01-16T13:03:54;8.32;;;3.22;;
59824;SDS011;45703;50.898;6.054;2024-01-16T13:06:20;11.85;;;3.15;;
59824;SDS011;45703;50.898;6.054;2024-01-16T13:08:47;9.85;;;3.13;;
59824;SDS011;45703;50.898;6.054;2024-01-16T13:11:13;10.35;;;3.40;;
59824;SDS011;45703;50.898;6.054;2024-01-16T13:13:44;10.45;;;3.58;;
59824;SDS011;45703;50.898;6.054;2024-01-16T13:16:10;8.60;;;3.55;;
59824;SDS011;45703;50.898;6.054;2024-01-16T13:18:36;8.65;;;3.47;;
59824;SDS011;45703;50.898;6.054;2024-01-16T13:21:02;8.73;;;2.97;;
59824;SDS011;45703;50.898;6.054;2024-01-16T13:23:27;8.60;;;3.00;;
59824;SDS011;45703;50.898;6.054;2024-01-16T13:25:54;9.48;;;3.30;;
59824;SDS011;45703;50.898;6.054;2024-01-16T13:28:21;8.60;;;3.35;;
59824;SDS011;45703;50.898;6.054;2024-01-16T13:30:47;11.10;;;3.95;;
59824;SDS011;45703;50.898;6.054;2024-01-16T13:33:14;12.18;;;3.50;;
59824;SDS011;45703;50.898;6.054;2024-01-16T13:35:41;8.68;;;3.63;;
59824;SDS011;45703;50.898;6.054;2024-01-16T13:38:08;8.52;;;3.00;;
59824;SDS011;45703;50.898;6.054;2024-01-16T13:40:35;10.82;;;3.33;;
59824;SDS011;45703;50.898;6.054;2024-01-16T13:43:01;8.90;;;2.88;;
59824;SDS011;45703;50.898;6.054;2024-01-16T13:45:27;10.35;;;2.88;;
59824;SDS011;45703;50.898;6.054;2024-01-16T13:47:53;7.20;;;2.50;;
59824;SDS011;45703;50.898;6.054;2024-01-16T13:50:19;10.93;;;3.17;;
59824;SDS011;45703;50.898;6.054;2024-01-16T13:52:44;8.02;;;2.83;;
59824;SDS011;45703;50.898;6.054;2024-01-16T13:55:10;9.05;;;3.42;;
59824;SDS011;45703;50.898;6.054;2024-01-16T13:57:36;11.60;;;2.85;;
59824;SDS011;45703;50.898;6.054;2024-01-16T14:00:05;9.18;;;3.13;;
59824;SDS011;45703;50.898;6.054;2024-01-16T14:02:32;8.48;;;3.20;;
59824;SDS011;45703;50.898;6.054;2024-01-16T14:04:59;7.57;;;3.30;;
59824;SDS011;45703;50.898;6.054;2024-01-16T14:07:25;9.38;;;3.35;;
59824;SDS011;45703;50.898;6.054;2024-01-16T14:09:50;10.38;;;3.58;;
59824;SDS011;45703;50.898;6.054;2024-01-16T14:12:16;10.23;;;3.40;;
59824;SDS011;45703;50.898;6.054;2024-01-16T14:14:43;8.93;;;3.20;;
59824;SDS011;45703;50.898;6.054;2024-01-16T14:17:09;10.55;;;3.53;;
59824;SDS011;45703;50.898;6.054;2024-01-16T14:19:35;8.43;;;3.40;;
59824;SDS011;45703;50.898;6.054;2024-01-16T14:22:00;10.18;;;3.10;;
59824;SDS011;45703;50.898;6.054;2024-01-16T14:24:26;9.52;;;4.05;;
59824;SDS011;45703;50.898;6.054;2024-01-16T14:26:51;10.30;;;3.60;;
59824;SDS011;45703;50.898;6.054;2024-01-16T14:29:16;11.77;;;3.60;;
59824;SDS011;45703;50.898;6.054;2024-01-16T14:31:43;8.45;;;3.58;;
59824;SDS011;45703;50.898;6.054;2024-01-16T14:34:12;8.55;;;3.38;;
59824;SDS011;45703;50.898;6.054;2024-01-16T14:36:40;8.50;;;3.78;;
59824;SDS011;45703;50.898;6.054;2024-01-16T14:39:06;9.07;;;4.10;;
59824;SDS011;45703;50.898;6.054;2024-01-16T14:41:34;9.18;;;4.00;;
59824;SDS011;45703;50.898;6.054;2024-01-16T14:44:00;10.32;;;4.05;;
59824;SDS011;45703;50.898;6.054;2024-01-16T14:46:26;9.95;;;3.83;;
59824;SDS011;45703;50.898;6.054;2024-01-16T14:48:51;13.20;;;3.47;;
59824;SDS011;45703;50.898;6.054;2024-01-16T14:51:17;8.75;;;3.35;;